sensor_id;sensor_type;location;lat;lon;timestamp;P1;durP1;ratioP1;P2;durP2;ratioP2
31782;SDS011;18351;47.560;9.708;2023-04-03T00:01:28;5.25;;;4.05;;
31782;SDS011;18351;47.560;9.708;2023-04-03T00:03:54;4.40;;;4.00;;
31782;SDS011;18351;47.560;9.708;2023-04-03T00:06:19;4.40;;;4.00;;
31782;SDS011;18351;47.560;9.708;2023-04-03T00:08:45;5.32;;;4.18;;
31782;SDS011;18351;47.560;9.708;2023-04-03T00:11:11;4.57;;;4.15;;
31782;SDS011;18351;47.560;9.708;2023-04-03T00:13:38;4.10;;;3.75;;
31782;SDS011;18351;47.560;9.708;2023-04-03T00:16:04;7.20;;;3.88;;
31782;SDS011;18351;47.560;9.708;2023-04-03T00:18:30;4.50;;;3.75;;
31782;SDS011;18351;47.560;9.708;2023-04-03T00:20:56;3.92;;;3.63;;
31782;SDS011;18351;47.560;9.708;2023-04-03T00:23:22;4.32;;;3.80;;
31782;SDS011;18351;47.560;9.708;2023-04-03T00:25:48;6.65;;;3.40;;
31782;SDS011;18351;47.560;9.708;2023-04-03T00:28:14;3.97;;;3.58;;
31782;SDS011;18351;47.560;9.708;2023-04-03T00:30:40;4.28;;;3.88;;
31782;SDS011;18351;47.560;9.708;2023-04-03T00:33:05;4.32;;;3.92;;
31782;SDS011;18351;47.560;9.708;2023-04-03T00:35:31;4.90;;;3.80;;
31782;SDS011;18351;47.560;9.708;2023-04-03T00:37:58;4.13;;;3.72;;
31782;SDS011;18351;47.560;9.708;2023-04-03T00:40:25;5.93;;;4.63;;
31782;SDS011;18351;47.560;9.708;2023-04-03T00:42:54;5.07;;;4.35;;
31782;SDS011;18351;47.560;9.708;2023-04-03T00:45:41;7.00;;;5.07;;
31782;SDS011;18351;47.560;9.708;2023-04-03T00:48:13;5.90;;;4.90;;
31782;SDS011;18351;47.560;9.708;2023-04-03T00:50:42;6.32;;;5.28;;
31782;SDS011;18351;47.560;9.708;2023-04-03T00:53:11;6.13;;;5.22;;
31782;SDS011;18351;47.560;9.708;2023-04-03T00:55:39;6.10;;;5.50;;
31782;SDS011;18351;47.560;9.708;2023-04-03T00:58:07;8.13;;;5.78;;
31782;SDS011;18351;47.560;9.708;2023-04-03T01:00:34;7.78;;;5.95;;
31782;SDS011;18351;47.560;9.708;2023-04-03T01:03:02;6.40;;;5.40;;
31782;SDS011;18351;47.560;9.708;2023-04-03T01:05:28;6.75;;;6.07;;
31782;SDS011;18351;47.560;9.708;2023-04-03T01:07:54;7.97;;;6.25;;
31782;SDS011;18351;47.560;9.708;2023-04-03T01:10:20;8.18;;;6.55;;
31782;SDS011;18351;47.560;9.708;2023-04-03T01:12:47;8.35;;;6.55;;
31782;SDS011;18351;47.560;9.708;2023-04-03T01:15:17;8.18;;;6.63;;
31782;SDS011;18351;47.560;9.708;2023-04-03T01:17:51;7.80;;;6.83;;
31782;SDS011;18351;47.560;9.708;2023-04-03T01:22:59;9.77;;;7.78;;
31782;SDS011;18351;47.560;9.708;2023-04-03T01:25:34;9.57;;;7.85;;
31782;SDS011;18351;47.560;9.708;2023-04-03T01:28:02;13.02;;;8.55;;
31782;SDS011;18351;47.560;9.708;2023-04-03T01:30:31;11.93;;;9.15;;
31782;SDS011;18351;47.560;9.708;2023-04-03T01:32:59;15.88;;;9.50;;
31782;SDS011;18351;47.560;9.708;2023-04-03T01:35:24;13.30;;;9.70;;
31782;SDS011;18351;47.560;9.708;2023-04-03T01:37:50;14.25;;;8.93;;
31782;SDS011;18351;47.560;9.708;2023-04-03T01:40:16;13.55;;;9.18;;
31782;SDS011;18351;47.560;9.708;2023-04-03T01:42:41;12.55;;;9.55;;
31782;SDS011;18351;47.560;9.708;2023-04-03T01:45:07;11.00;;;9.35;;
31782;SDS011;18351;47.560;9.708;2023-04-03T01:47:33;15.25;;;9.70;;
31782;SDS011;18351;47.560;9.708;2023-04-03T01:49:58;13.60;;;9.45;;
31782;SDS011;18351;47.560;9.708;2023-04-03T01:52:24;12.45;;;9.85;;
31782;SDS011;18351;47.560;9.708;2023-04-03T01:54:50;11.68;;;9.50;;
31782;SDS011;18351;47.560;9.708;2023-04-03T01:57:15;17.17;;;10.20;;
31782;SDS011;18351;47.560;9.708;2023-04-03T01:59:41;15.75;;;10.25;;
31782;SDS011;18351;47.560;9.708;2023-04-03T02:02:07;14.13;;;9.60;;
31782;SDS011;18351;47.560;9.708;2023-04-03T02:04:32;15.20;;;10.60;;
31782;SDS011;18351;47.560;9.708;2023-04-03T02:06:58;14.23;;;10.70;;
31782;SDS011;18351;47.560;9.708;2023-04-03T02:09:23;13.85;;;10.30;;
31782;SDS011;18351;47.560;9.708;2023-04-03T02:11:49;17.10;;;11.05;;
31782;SDS011;18351;47.560;9.708;2023-04-03T02:14:15;15.75;;;10.80;;
31782;SDS011;18351;47.560;9.708;2023-04-03T02:16:40;18.58;;;11.73;;
31782;SDS011;18351;47.560;9.708;2023-04-03T02:19:06;15.95;;;11.10;;
31782;SDS011;18351;47.560;9.708;2023-04-03T02:21:31;16.73;;;12.02;;
31782;SDS011;18351;47.560;9.708;2023-04-03T02:23:57;15.20;;;11.68;;
31782;SDS011;18351;47.560;9.708;2023-04-03T02:26:22;15.15;;;11.30;;
31782;SDS011;18351;47.560;9.708;2023-04-03T02:28:48;15.10;;;11.27;;
31782;SDS011;18351;47.560;9.708;2023-04-03T02:31:14;16.20;;;11.00;;
31782;SDS011;18351;47.560;9.708;2023-04-03T02:33:39;15.82;;;11.43;;
31782;SDS011;18351;47.560;9.708;2023-04-03T02:36:05;16.05;;;11.63;;
31782;SDS011;18351;47.560;9.708;2023-04-03T02:38:32;17.20;;;12.63;;
31782;SDS011;18351;47.560;9.708;2023-04-03T02:41:02;18.88;;;12.55;;
31782;SDS011;18351;47.560;9.708;2023-04-03T02:43:28;18.38;;;12.10;;
31782;SDS011;18351;47.560;9.708;2023-04-03T02:45:54;17.50;;;11.95;;
31782;SDS011;18351;47.560;9.708;2023-04-03T02:48:20;18.60;;;12.40;;
31782;SDS011;18351;47.560;9.708;2023-04-03T02:50:45;17.15;;;11.82;;
31782;SDS011;18351;47.560;9.708;2023-04-03T02:53:11;18.88;;;12.73;;
31782;SDS011;18351;47.560;9.708;2023-04-03T02:55:36;17.40;;;12.70;;
31782;SDS011;18351;47.560;9.708;2023-04-03T02:58:02;16.90;;;12.00;;
31782;SDS011;18351;47.560;9.708;2023-04-03T03:00:28;16.80;;;12.23;;
31782;SDS011;18351;47.560;9.708;2023-04-03T03:02:54;19.08;;;12.63;;
31782;SDS011;18351;47.560;9.708;2023-04-03T03:05:20;17.30;;;12.20;;
31782;SDS011;18351;47.560;9.708;2023-04-03T03:07:46;19.27;;;12.20;;
31782;SDS011;18351;47.560;9.708;2023-04-03T03:10:12;18.85;;;13.25;;
31782;SDS011;18351;47.560;9.708;2023-04-03T03:12:38;19.90;;;12.20;;
31782;SDS011;18351;47.560;9.708;2023-04-03T03:15:03;20.90;;;13.05;;
31782;SDS011;18351;47.560;9.708;2023-04-03T03:17:29;17.85;;;13.50;;
31782;SDS011;18351;47.560;9.708;2023-04-03T03:19:55;18.38;;;12.30;;
31782;SDS011;18351;47.560;9.708;2023-04-03T03:22:20;17.60;;;12.73;;
31782;SDS011;18351;47.560;9.708;2023-04-03T03:24:46;21.00;;;13.60;;
31782;SDS011;18351;47.560;9.708;2023-04-03T03:27:11;17.90;;;12.75;;
31782;SDS011;18351;47.560;9.708;2023-04-03T03:29:37;19.10;;;13.80;;
31782;SDS011;18351;47.560;9.708;2023-04-03T03:32:03;20.65;;;14.10;;
31782;SDS011;18351;47.560;9.708;2023-04-03T03:34:28;20.45;;;13.13;;
31782;SDS011;18351;47.560;9.708;2023-04-03T03:36:54;20.77;;;13.23;;
31782;SDS011;18351;47.560;9.708;2023-04-03T03:39:20;20.95;;;14.20;;
31782;SDS011;18351;47.560;9.708;2023-04-03T03:41:46;20.55;;;14.00;;
31782;SDS011;18351;47.560;9.708;2023-04-03T03:44:12;20.15;;;14.65;;
31782;SDS011;18351;47.560;9.708;2023-04-03T03:46:37;19.20;;;13.55;;
31782;SDS011;18351;47.560;9.708;2023-04-03T03:49:03;22.35;;;15.38;;
31782;SDS011;18351;47.560;9.708;2023-04-03T03:51:28;18.70;;;13.45;;
31782;SDS011;18351;47.560;9.708;2023-04-03T03:53:54;18.33;;;13.10;;
31782;SDS011;18351;47.560;9.708;2023-04-03T03:56:20;24.27;;;14.38;;
31782;SDS011;18351;47.560;9.708;2023-04-03T03:58:45;21.15;;;14.70;;
31782;SDS011;18351;47.560;9.708;2023-04-03T04:01:11;18.95;;;13.35;;
31782;SDS011;18351;47.560;9.708;2023-04-03T04:03:37;24.55;;;15.15;;
31782;SDS011;18351;47.560;9.708;2023-04-03T04:06:02;18.02;;;13.93;;
31782;SDS011;18351;47.560;9.708;2023-04-03T04:08:28;21.50;;;14.95;;
31782;SDS011;18351;47.560;9.708;2023-04-03T04:10:53;25.85;;;15.73;;
31782;SDS011;18351;47.560;9.708;2023-04-03T04:13:19;18.58;;;13.13;;
31782;SDS011;18351;47.560;9.708;2023-04-03T04:15:45;23.85;;;13.50;;
31782;SDS011;18351;47.560;9.708;2023-04-03T04:18:10;20.88;;;14.10;;
31782;SDS011;18351;47.560;9.708;2023-04-03T04:20:36;25.55;;;16.15;;
31782;SDS011;18351;47.560;9.708;2023-04-03T04:23:01;34.08;;;18.40;;
31782;SDS011;18351;47.560;9.708;2023-04-03T04:25:27;30.30;;;18.58;;
31782;SDS011;18351;47.560;9.708;2023-04-03T04:27:53;24.15;;;14.82;;
31782;SDS011;18351;47.560;9.708;2023-04-03T04:30:18;21.00;;;14.88;;
31782;SDS011;18351;47.560;9.708;2023-04-03T04:32:44;21.75;;;15.02;;
31782;SDS011;18351;47.560;9.708;2023-04-03T04:35:09;21.05;;;15.35;;
31782;SDS011;18351;47.560;9.708;2023-04-03T04:37:35;18.40;;;13.98;;
31782;SDS011;18351;47.560;9.708;2023-04-03T04:40:00;20.35;;;15.27;;
31782;SDS011;18351;47.560;9.708;2023-04-03T04:42:27;24.13;;;17.20;;
31782;SDS011;18351;47.560;9.708;2023-04-03T04:44:53;19.92;;;14.60;;
31782;SDS011;18351;47.560;9.708;2023-04-03T04:47:18;24.77;;;16.15;;
31782;SDS011;18351;47.560;9.708;2023-04-03T04:49:44;22.42;;;14.52;;
31782;SDS011;18351;47.560;9.708;2023-04-03T04:52:10;24.85;;;16.80;;
31782;SDS011;18351;47.560;9.708;2023-04-03T04:54:35;22.73;;;16.20;;
31782;SDS011;18351;47.560;9.708;2023-04-03T04:57:01;27.05;;;16.92;;
31782;SDS011;18351;47.560;9.708;2023-04-03T04:59:26;32.72;;;15.38;;
31782;SDS011;18351;47.560;9.708;2023-04-03T05:01:52;27.20;;;18.17;;
31782;SDS011;18351;47.560;9.708;2023-04-03T05:04:18;34.17;;;20.70;;
31782;SDS011;18351;47.560;9.708;2023-04-03T05:06:43;30.08;;;19.00;;
31782;SDS011;18351;47.560;9.708;2023-04-03T05:09:09;28.83;;;19.58;;
31782;SDS011;18351;47.560;9.708;2023-04-03T05:11:35;27.13;;;18.33;;
31782;SDS011;18351;47.560;9.708;2023-04-03T05:14:01;32.90;;;19.33;;
31782;SDS011;18351;47.560;9.708;2023-04-03T05:16:26;27.95;;;18.30;;
31782;SDS011;18351;47.560;9.708;2023-04-03T05:18:52;27.00;;;18.35;;
31782;SDS011;18351;47.560;9.708;2023-04-03T05:21:18;22.10;;;15.98;;
31782;SDS011;18351;47.560;9.708;2023-04-03T05:23:44;25.65;;;16.13;;
31782;SDS011;18351;47.560;9.708;2023-04-03T05:26:09;24.15;;;16.15;;
31782;SDS011;18351;47.560;9.708;2023-04-03T05:28:35;22.83;;;16.17;;
31782;SDS011;18351;47.560;9.708;2023-04-03T05:31:01;23.95;;;15.60;;
31782;SDS011;18351;47.560;9.708;2023-04-03T05:33:27;23.58;;;15.40;;
31782;SDS011;18351;47.560;9.708;2023-04-03T05:35:53;25.08;;;17.52;;
31782;SDS011;18351;47.560;9.708;2023-04-03T05:38:19;23.48;;;14.75;;
31782;SDS011;18351;47.560;9.708;2023-04-03T05:40:45;22.25;;;13.93;;
31782;SDS011;18351;47.560;9.708;2023-04-03T05:43:12;19.67;;;14.15;;
31782;SDS011;18351;47.560;9.708;2023-04-03T05:45:37;23.10;;;15.45;;
31782;SDS011;18351;47.560;9.708;2023-04-03T05:48:03;23.45;;;14.02;;
31782;SDS011;18351;47.560;9.708;2023-04-03T05:50:29;19.90;;;14.05;;
31782;SDS011;18351;47.560;9.708;2023-04-03T05:52:55;17.38;;;13.50;;
31782;SDS011;18351;47.560;9.708;2023-04-03T05:55:23;19.25;;;13.25;;
31782;SDS011;18351;47.560;9.708;2023-04-03T05:57:50;21.35;;;12.68;;
31782;SDS011;18351;47.560;9.708;2023-04-03T06:00:15;19.40;;;12.75;;
31782;SDS011;18351;47.560;9.708;2023-04-03T06:02:41;16.65;;;12.35;;
31782;SDS011;18351;47.560;9.708;2023-04-03T06:05:08;19.35;;;13.05;;
31782;SDS011;18351;47.560;9.708;2023-04-03T06:07:34;22.80;;;12.60;;
31782;SDS011;18351;47.560;9.708;2023-04-03T06:10:00;16.60;;;12.07;;
31782;SDS011;18351;47.560;9.708;2023-04-03T06:12:27;17.13;;;11.95;;
31782;SDS011;18351;47.560;9.708;2023-04-03T06:14:54;22.52;;;12.60;;
31782;SDS011;18351;47.560;9.708;2023-04-03T06:17:20;18.00;;;12.48;;
31782;SDS011;18351;47.560;9.708;2023-04-03T06:19:46;18.65;;;12.93;;
31782;SDS011;18351;47.560;9.708;2023-04-03T06:22:12;18.58;;;11.70;;
31782;SDS011;18351;47.560;9.708;2023-04-03T06:24:38;17.17;;;12.30;;
31782;SDS011;18351;47.560;9.708;2023-04-03T06:27:03;17.33;;;12.60;;
31782;SDS011;18351;47.560;9.708;2023-04-03T06:29:29;14.88;;;11.63;;
31782;SDS011;18351;47.560;9.708;2023-04-03T06:31:55;15.30;;;10.98;;
31782;SDS011;18351;47.560;9.708;2023-04-03T06:34:21;17.23;;;11.32;;
31782;SDS011;18351;47.560;9.708;2023-04-03T06:36:47;21.25;;;12.00;;
31782;SDS011;18351;47.560;9.708;2023-04-03T06:39:14;17.25;;;11.18;;
31782;SDS011;18351;47.560;9.708;2023-04-03T06:41:42;18.15;;;12.23;;
31782;SDS011;18351;47.560;9.708;2023-04-03T06:44:08;14.93;;;10.82;;
31782;SDS011;18351;47.560;9.708;2023-04-03T06:46:36;16.95;;;11.82;;
31782;SDS011;18351;47.560;9.708;2023-04-03T06:49:02;16.77;;;11.27;;
31782;SDS011;18351;47.560;9.708;2023-04-03T06:51:28;19.15;;;11.38;;
31782;SDS011;18351;47.560;9.708;2023-04-03T06:53:55;15.27;;;11.88;;
31782;SDS011;18351;47.560;9.708;2023-04-03T06:56:22;17.33;;;10.68;;
31782;SDS011;18351;47.560;9.708;2023-04-03T06:58:48;18.08;;;11.75;;
31782;SDS011;18351;47.560;9.708;2023-04-03T07:01:16;19.10;;;11.55;;
31782;SDS011;18351;47.560;9.708;2023-04-03T07:03:44;16.38;;;11.77;;
31782;SDS011;18351;47.560;9.708;2023-04-03T07:06:11;16.23;;;12.00;;
31782;SDS011;18351;47.560;9.708;2023-04-03T07:08:38;16.83;;;11.73;;
31782;SDS011;18351;47.560;9.708;2023-04-03T07:11:05;16.25;;;11.50;;
31782;SDS011;18351;47.560;9.708;2023-04-03T07:13:31;16.40;;;10.48;;
31782;SDS011;18351;47.560;9.708;2023-04-03T07:15:57;16.70;;;10.77;;
31782;SDS011;18351;47.560;9.708;2023-04-03T07:18:23;13.15;;;10.40;;
31782;SDS011;18351;47.560;9.708;2023-04-03T07:20:49;13.73;;;10.38;;
31782;SDS011;18351;47.560;9.708;2023-04-03T07:23:15;15.18;;;11.30;;
31782;SDS011;18351;47.560;9.708;2023-04-03T07:25:45;15.93;;;10.43;;
31782;SDS011;18351;47.560;9.708;2023-04-03T07:28:11;16.50;;;10.50;;
31782;SDS011;18351;47.560;9.708;2023-04-03T07:30:46;12.63;;;9.80;;
31782;SDS011;18351;47.560;9.708;2023-04-03T07:33:14;14.48;;;10.57;;
31782;SDS011;18351;47.560;9.708;2023-04-03T07:35:41;18.00;;;11.80;;
31782;SDS011;18351;47.560;9.708;2023-04-03T07:38:08;13.55;;;10.00;;
31782;SDS011;18351;47.560;9.708;2023-04-03T07:40:34;12.60;;;9.45;;
31782;SDS011;18351;47.560;9.708;2023-04-03T07:43:00;11.77;;;9.25;;
31782;SDS011;18351;47.560;9.708;2023-04-03T07:45:25;12.40;;;9.40;;
31782;SDS011;18351;47.560;9.708;2023-04-03T07:47:51;13.35;;;8.80;;
31782;SDS011;18351;47.560;9.708;2023-04-03T07:50:17;10.45;;;8.50;;
31782;SDS011;18351;47.560;9.708;2023-04-03T07:52:43;11.88;;;9.55;;
31782;SDS011;18351;47.560;9.708;2023-04-03T07:55:10;12.20;;;9.18;;
31782;SDS011;18351;47.560;9.708;2023-04-03T07:57:36;12.68;;;8.98;;
31782;SDS011;18351;47.560;9.708;2023-04-03T08:00:03;10.75;;;8.88;;
31782;SDS011;18351;47.560;9.708;2023-04-03T08:02:29;10.85;;;8.50;;
31782;SDS011;18351;47.560;9.708;2023-04-03T08:04:57;9.63;;;7.82;;
31782;SDS011;18351;47.560;9.708;2023-04-03T08:07:23;11.32;;;8.82;;
31782;SDS011;18351;47.560;9.708;2023-04-03T08:09:48;11.07;;;8.20;;
31782;SDS011;18351;47.560;9.708;2023-04-03T08:12:14;12.10;;;8.27;;
31782;SDS011;18351;47.560;9.708;2023-04-03T08:14:40;11.43;;;8.30;;
31782;SDS011;18351;47.560;9.708;2023-04-03T08:17:06;12.00;;;8.02;;
31782;SDS011;18351;47.560;9.708;2023-04-03T08:19:34;9.55;;;7.80;;
31782;SDS011;18351;47.560;9.708;2023-04-03T08:22:00;10.18;;;7.95;;
31782;SDS011;18351;47.560;9.708;2023-04-03T08:24:27;8.90;;;7.55;;
31782;SDS011;18351;47.560;9.708;2023-04-03T08:26:53;10.18;;;8.02;;
31782;SDS011;18351;47.560;9.708;2023-04-03T08:29:20;10.02;;;7.78;;
31782;SDS011;18351;47.560;9.708;2023-04-03T08:31:46;9.88;;;8.23;;
31782;SDS011;18351;47.560;9.708;2023-04-03T08:34:12;12.38;;;8.25;;
31782;SDS011;18351;47.560;9.708;2023-04-03T08:36:38;10.95;;;8.40;;
31782;SDS011;18351;47.560;9.708;2023-04-03T08:39:04;11.60;;;9.35;;
31782;SDS011;18351;47.560;9.708;2023-04-03T08:41:32;11.63;;;8.52;;
31782;SDS011;18351;47.560;9.708;2023-04-03T08:49:31;13.05;;;9.35;;
31782;SDS011;18351;47.560;9.708;2023-04-03T08:52:14;11.60;;;8.63;;
31782;SDS011;18351;47.560;9.708;2023-04-03T08:55:00;9.40;;;7.88;;
31782;SDS011;18351;47.560;9.708;2023-04-03T08:57:33;9.75;;;8.07;;
31782;SDS011;18351;47.560;9.708;2023-04-03T09:00:07;11.70;;;7.65;;
31782;SDS011;18351;47.560;9.708;2023-04-03T09:05:15;9.40;;;7.47;;
31782;SDS011;18351;47.560;9.708;2023-04-03T09:07:47;14.88;;;8.20;;
31782;SDS011;18351;47.560;9.708;2023-04-03T09:10:29;10.40;;;8.10;;
31782;SDS011;18351;47.560;9.708;2023-04-03T09:13:03;11.88;;;7.97;;
31782;SDS011;18351;47.560;9.708;2023-04-03T09:15:33;9.48;;;7.72;;
31782;SDS011;18351;47.560;9.708;2023-04-03T09:18:33;10.75;;;8.23;;
31782;SDS011;18351;47.560;9.708;2023-04-03T09:21:13;10.02;;;8.20;;
31782;SDS011;18351;47.560;9.708;2023-04-03T09:23:47;11.00;;;8.30;;
31782;SDS011;18351;47.560;9.708;2023-04-03T09:26:14;11.50;;;8.27;;
31782;SDS011;18351;47.560;9.708;2023-04-03T09:28:46;12.15;;;8.15;;
31782;SDS011;18351;47.560;9.708;2023-04-03T09:31:34;10.68;;;8.32;;
31782;SDS011;18351;47.560;9.708;2023-04-03T09:37:06;11.27;;;8.38;;
31782;SDS011;18351;47.560;9.708;2023-04-03T09:39:32;11.45;;;8.60;;
31782;SDS011;18351;47.560;9.708;2023-04-03T09:42:19;13.02;;;9.57;;
31782;SDS011;18351;47.560;9.708;2023-04-03T09:44:57;12.23;;;8.60;;
31782;SDS011;18351;47.560;9.708;2023-04-03T09:52:39;12.95;;;8.43;;
31782;SDS011;18351;47.560;9.708;2023-04-03T09:57:55;11.85;;;8.98;;
31782;SDS011;18351;47.560;9.708;2023-04-03T10:00:28;12.82;;;9.07;;
31782;SDS011;18351;47.560;9.708;2023-04-03T10:03:00;13.70;;;8.85;;
31782;SDS011;18351;47.560;9.708;2023-04-03T10:05:34;13.95;;;8.95;;
31782;SDS011;18351;47.560;9.708;2023-04-03T10:08:08;10.63;;;8.27;;
31782;SDS011;18351;47.560;9.708;2023-04-03T10:10:38;9.27;;;7.72;;
31782;SDS011;18351;47.560;9.708;2023-04-03T10:13:16;11.05;;;8.05;;
31782;SDS011;18351;47.560;9.708;2023-04-03T10:34:23;11.50;;;7.82;;
31782;SDS011;18351;47.560;9.708;2023-04-03T10:50:58;10.25;;;7.10;;
31782;SDS011;18351;47.560;9.708;2023-04-03T10:53:36;8.88;;;6.35;;
31782;SDS011;18351;47.560;9.708;2023-04-03T10:58:57;7.82;;;5.90;;
31782;SDS011;18351;47.560;9.708;2023-04-03T11:01:33;10.38;;;6.22;;
31782;SDS011;18351;47.560;9.708;2023-04-03T11:04:03;10.18;;;7.30;;
31782;SDS011;18351;47.560;9.708;2023-04-03T11:06:32;8.85;;;6.30;;
31782;SDS011;18351;47.560;9.708;2023-04-03T11:09:05;6.30;;;5.60;;
31782;SDS011;18351;47.560;9.708;2023-04-03T11:11:41;8.73;;;5.82;;
31782;SDS011;18351;47.560;9.708;2023-04-03T11:14:11;7.68;;;5.82;;
31782;SDS011;18351;47.560;9.708;2023-04-03T11:17:05;12.25;;;5.57;;
31782;SDS011;18351;47.560;9.708;2023-04-03T11:19:43;7.10;;;6.00;;
31782;SDS011;18351;47.560;9.708;2023-04-03T11:22:29;7.95;;;5.72;;
31782;SDS011;18351;47.560;9.708;2023-04-03T11:25:02;7.85;;;5.60;;
31782;SDS011;18351;47.560;9.708;2023-04-03T11:27:30;6.78;;;5.28;;
31782;SDS011;18351;47.560;9.708;2023-04-03T11:30:20;7.72;;;5.80;;
31782;SDS011;18351;47.560;9.708;2023-04-03T11:35:28;6.22;;;4.68;;
31782;SDS011;18351;47.560;9.708;2023-04-03T11:37:55;6.07;;;4.88;;
31782;SDS011;18351;47.560;9.708;2023-04-03T11:40:24;5.68;;;5.07;;
31782;SDS011;18351;47.560;9.708;2023-04-03T11:42:54;5.43;;;4.82;;
31782;SDS011;18351;47.560;9.708;2023-04-03T11:50:44;5.20;;;4.38;;
31782;SDS011;18351;47.560;9.708;2023-04-03T11:58:16;5.47;;;4.32;;
31782;SDS011;18351;47.560;9.708;2023-04-03T12:05:53;5.35;;;4.13;;
31782;SDS011;18351;47.560;9.708;2023-04-03T12:13:38;9.45;;;4.93;;
31782;SDS011;18351;47.560;9.708;2023-04-03T12:34:29;5.90;;;3.75;;
31782;SDS011;18351;47.560;9.708;2023-04-03T12:37:07;5.72;;;4.13;;
31782;SDS011;18351;47.560;9.708;2023-04-03T12:39:53;5.88;;;4.13;;
31782;SDS011;18351;47.560;9.708;2023-04-03T12:45:02;6.47;;;5.47;;
31782;SDS011;18351;47.560;9.708;2023-04-03T12:47:35;7.75;;;5.28;;
31782;SDS011;18351;47.560;9.708;2023-04-03T12:50:03;8.88;;;5.50;;
31782;SDS011;18351;47.560;9.708;2023-04-03T12:52:41;10.23;;;5.95;;
31782;SDS011;18351;47.560;9.708;2023-04-03T12:55:19;7.05;;;5.38;;
31782;SDS011;18351;47.560;9.708;2023-04-03T12:57:45;5.77;;;5.03;;
31782;SDS011;18351;47.560;9.708;2023-04-03T13:02:58;7.30;;;4.70;;
31782;SDS011;18351;47.560;9.708;2023-04-03T13:05:24;7.15;;;5.00;;
31782;SDS011;18351;47.560;9.708;2023-04-03T13:07:56;6.40;;;4.90;;
31782;SDS011;18351;47.560;9.708;2023-04-03T13:10:28;10.48;;;6.25;;
31782;SDS011;18351;47.560;9.708;2023-04-03T13:12:55;7.53;;;4.97;;
31782;SDS011;18351;47.560;9.708;2023-04-03T13:15:27;8.52;;;4.90;;
31782;SDS011;18351;47.560;9.708;2023-04-03T13:17:55;5.25;;;4.75;;
31782;SDS011;18351;47.560;9.708;2023-04-03T13:20:23;4.90;;;4.40;;
31782;SDS011;18351;47.560;9.708;2023-04-03T13:23:01;6.00;;;4.80;;
31782;SDS011;18351;47.560;9.708;2023-04-03T13:25:31;6.50;;;4.80;;
31782;SDS011;18351;47.560;9.708;2023-04-03T13:27:59;5.15;;;4.50;;
31782;SDS011;18351;47.560;9.708;2023-04-03T13:30:29;6.80;;;4.85;;
31782;SDS011;18351;47.560;9.708;2023-04-03T13:32:58;6.25;;;5.25;;
31782;SDS011;18351;47.560;9.708;2023-04-03T13:38:05;6.75;;;4.65;;
31782;SDS011;18351;47.560;9.708;2023-04-03T13:43:21;7.60;;;5.38;;
31782;SDS011;18351;47.560;9.708;2023-04-03T13:46:00;5.40;;;4.80;;
31782;SDS011;18351;47.560;9.708;2023-04-03T13:48:36;8.95;;;4.72;;
31782;SDS011;18351;47.560;9.708;2023-04-03T13:54:21;5.95;;;4.60;;
31782;SDS011;18351;47.560;9.708;2023-04-03T13:56:38;5.80;;;4.38;;
31782;SDS011;18351;47.560;9.708;2023-04-03T14:04:53;6.55;;;5.57;;
31782;SDS011;18351;47.560;9.708;2023-04-03T14:07:23;10.18;;;5.00;;
31782;SDS011;18351;47.560;9.708;2023-04-03T14:09:49;6.25;;;5.13;;
31782;SDS011;18351;47.560;9.708;2023-04-03T14:12:17;5.35;;;4.75;;
31782;SDS011;18351;47.560;9.708;2023-04-03T14:14:49;7.07;;;4.85;;
31782;SDS011;18351;47.560;9.708;2023-04-03T14:17:16;5.93;;;4.65;;
31782;SDS011;18351;47.560;9.708;2023-04-03T14:19:44;5.13;;;4.60;;
31782;SDS011;18351;47.560;9.708;2023-04-03T14:22:15;6.47;;;5.07;;
31782;SDS011;18351;47.560;9.708;2023-04-03T14:24:43;4.15;;;3.67;;
31782;SDS011;18351;47.560;9.708;2023-04-03T14:27:21;5.65;;;4.43;;
31782;SDS011;18351;47.560;9.708;2023-04-03T14:29:53;11.82;;;4.82;;
31782;SDS011;18351;47.560;9.708;2023-04-03T14:32:21;7.80;;;5.10;;
31782;SDS011;18351;47.560;9.708;2023-04-03T14:34:48;6.70;;;5.28;;
31782;SDS011;18351;47.560;9.708;2023-04-03T14:37:17;6.30;;;5.10;;
31782;SDS011;18351;47.560;9.708;2023-04-03T14:39:45;6.30;;;5.03;;
31782;SDS011;18351;47.560;9.708;2023-04-03T14:42:12;8.00;;;4.97;;
31782;SDS011;18351;47.560;9.708;2023-04-03T14:44:39;9.90;;;5.60;;
31782;SDS011;18351;47.560;9.708;2023-04-03T14:47:08;6.63;;;5.45;;
31782;SDS011;18351;47.560;9.708;2023-04-03T14:49:35;8.13;;;5.18;;
31782;SDS011;18351;47.560;9.708;2023-04-03T14:52:00;7.30;;;5.10;;
31782;SDS011;18351;47.560;9.708;2023-04-03T14:54:26;6.60;;;5.15;;
31782;SDS011;18351;47.560;9.708;2023-04-03T14:56:53;7.18;;;5.55;;
31782;SDS011;18351;47.560;9.708;2023-04-03T14:59:20;8.90;;;5.75;;
31782;SDS011;18351;47.560;9.708;2023-04-03T15:01:46;7.40;;;5.50;;
31782;SDS011;18351;47.560;9.708;2023-04-03T15:04:21;6.63;;;5.45;;
31782;SDS011;18351;47.560;9.708;2023-04-03T15:06:47;7.20;;;4.97;;
31782;SDS011;18351;47.560;9.708;2023-04-03T15:09:20;7.03;;;5.35;;
31782;SDS011;18351;47.560;9.708;2023-04-03T15:11:49;6.68;;;5.63;;
31782;SDS011;18351;47.560;9.708;2023-04-03T15:14:15;8.10;;;6.07;;
31782;SDS011;18351;47.560;9.708;2023-04-03T15:16:41;9.07;;;5.72;;
31782;SDS011;18351;47.560;9.708;2023-04-03T15:19:06;10.10;;;5.85;;
31782;SDS011;18351;47.560;9.708;2023-04-03T15:21:32;10.57;;;5.85;;
31782;SDS011;18351;47.560;9.708;2023-04-03T15:23:58;10.52;;;5.90;;
31782;SDS011;18351;47.560;9.708;2023-04-03T15:26:24;16.10;;;6.32;;
31782;SDS011;18351;47.560;9.708;2023-04-03T15:28:50;7.47;;;5.35;;
31782;SDS011;18351;47.560;9.708;2023-04-03T15:31:16;7.18;;;5.10;;
31782;SDS011;18351;47.560;9.708;2023-04-03T15:33:41;6.75;;;5.18;;
31782;SDS011;18351;47.560;9.708;2023-04-03T15:36:07;6.50;;;5.18;;
31782;SDS011;18351;47.560;9.708;2023-04-03T15:38:33;7.68;;;5.55;;
31782;SDS011;18351;47.560;9.708;2023-04-03T15:40:59;9.02;;;6.10;;
31782;SDS011;18351;47.560;9.708;2023-04-03T15:43:25;9.48;;;5.40;;
31782;SDS011;18351;47.560;9.708;2023-04-03T15:45:51;6.18;;;5.47;;
31782;SDS011;18351;47.560;9.708;2023-04-03T15:48:17;9.45;;;5.88;;
31782;SDS011;18351;47.560;9.708;2023-04-03T15:50:43;7.05;;;5.72;;
31782;SDS011;18351;47.560;9.708;2023-04-03T15:53:10;12.55;;;6.15;;
31782;SDS011;18351;47.560;9.708;2023-04-03T15:55:36;7.95;;;6.40;;
31782;SDS011;18351;47.560;9.708;2023-04-03T15:58:03;10.70;;;6.63;;
31782;SDS011;18351;47.560;9.708;2023-04-03T16:00:29;8.30;;;6.57;;
31782;SDS011;18351;47.560;9.708;2023-04-03T16:02:57;7.28;;;5.88;;
31782;SDS011;18351;47.560;9.708;2023-04-03T16:05:26;6.07;;;4.97;;
31782;SDS011;18351;47.560;9.708;2023-04-03T16:07:52;15.32;;;8.07;;
31782;SDS011;18351;47.560;9.708;2023-04-03T16:10:20;8.10;;;5.78;;
31782;SDS011;18351;47.560;9.708;2023-04-03T16:12:46;9.30;;;5.38;;
31782;SDS011;18351;47.560;9.708;2023-04-03T16:15:11;7.78;;;6.30;;
31782;SDS011;18351;47.560;9.708;2023-04-03T16:17:37;8.13;;;5.72;;
31782;SDS011;18351;47.560;9.708;2023-04-03T16:20:05;7.30;;;5.50;;
31782;SDS011;18351;47.560;9.708;2023-04-03T16:22:32;10.82;;;5.70;;
31782;SDS011;18351;47.560;9.708;2023-04-03T16:24:58;11.23;;;5.88;;
31782;SDS011;18351;47.560;9.708;2023-04-03T16:27:24;8.07;;;5.60;;
31782;SDS011;18351;47.560;9.708;2023-04-03T16:29:53;8.20;;;6.15;;
31782;SDS011;18351;47.560;9.708;2023-04-03T16:32:19;6.43;;;5.72;;
31782;SDS011;18351;47.560;9.708;2023-04-03T16:34:45;8.40;;;5.75;;
31782;SDS011;18351;47.560;9.708;2023-04-03T16:37:11;10.95;;;6.10;;